Morton S Bouchard Jr — WSE9678 — position and weather

sailwx.info

Track history (hours):
 
Tides and Currents Weather Stations Pressure Air Temp Water Temp Dewpoint Dewpoint Depression Visibility Wind Speed Wind Dir Waves Ship Positions

Morton S Bouchard Jr

Owner: BOUCHARD TRANSPORTATION CO INC, MELVILLE, NY. More information available from US FCC via Universal Licensing System and Coast Guard Vessel Documentation Center.

Last reported at 2014-Nov-23 09:33 UTC. Time now 2014-Nov-23 09:37 UTC.
Position N 41°06' W 072°30'.

Length 33 m; draft 6 m.

Type: Tug. MMSI: 367006550.

Date/timePositionNaut miles runAvg speedWind from/ knotsBaromVisibWave heightAir tempDewpointWater temp
2014-Nov-23 09:33N 41°06' W 072°30'3 2.6
2014-Nov-23 08:33N 41°07' W 072°27'2 1.6
2014-Nov-23 07:33N 41°09' W 072°25'4 4.5
2014-Nov-23 06:33N 41°06' W 072°30'5 5.3
2014-Nov-23 05:33N 41°04' W 072°37'5 4.8
2014-Nov-23 04:33N 41°03' W 072°43'4 4.3
2014-Nov-23 03:33N 41°02' W 072°48'4 4.0
2014-Nov-23 02:33N 41°02' W 072°54'4 3.6
2014-Nov-23 01:33N 41°02' W 072°59'2 1.5
2014-Nov-23 00:34N 41°02' W 073°00'6 5.6
2014-Nov-22 23:33N 41°02' W 072°53'5 5.3
2014-Nov-22 22:33N 41°02' W 072°46'5 4.7
2014-Nov-22 21:33N 41°03' W 072°40'4 4.0
2014-Nov-22 20:33N 41°05' W 072°35'3 3.1
2014-Nov-22 19:33N 41°06' W 072°31'3 2.9
2014-Nov-22 18:33N 41°08' W 072°28'3 2.8
2014-Nov-22 17:34N 41°09' W 072°25'3 3.1
2014-Nov-22 16:33N 41°10' W 072°21'4 4.3
2014-Nov-22 15:33N 41°09' W 072°27'5 4.8
2014-Nov-22 14:33N 41°08' W 072°33'5 5.4
2014-Nov-22 13:33N 41°07' W 072°40'5 5.2
2014-Nov-22 12:33N 41°06' W 072°47'5 5.3
2014-Nov-22 11:33N 41°05' W 072°53'5 5.3
2014-Nov-22 10:33N 41°03' W 073°00'5 5.1
2014-Nov-22 09:33N 41°02' W 073°07'5 5.2
2014-Nov-22 08:33N 41°01' W 073°14'6 5.5
2014-Nov-22 07:33N 41°01' W 073°21'6 5.7
2014-Nov-22 06:33N 40°59' W 073°28'7 6.1
2014-Nov-22 05:27N 40°56' W 073°36'14 4.8
2014-Nov-22 02:30N 40°48' W 073°52'5 5.7
2014-Nov-22 01:33N 40°45' W 073°58'6 5.9
2014-Nov-22 00:33N 40°40' W 074°02'0 0.5
2014-Nov-21 23:33N 40°40' W 074°02'0 0.0
2014-Nov-21 22:33N 40°40' W 074°02'1 1.0
2014-Nov-21 21:33N 40°39' W 074°03'6 5.8
2014-Nov-21 20:33N 40°39' W 074°11'4 3.8
2014-Nov-21 19:33N 40°35' W 074°12'3 1.5
2014-Nov-21 17:30N 40°33' W 074°15'0 0.0
2014-Nov-21 16:05N 40°33' W 074°15'0 0.0
2014-Nov-21 15:04N 40°33' W 074°15'5 2.0
2014-Nov-21 12:33N 40°37' W 074°12'5 4.6
2014-Nov-21 11:33N 40°39' W 074°07'1 0.6
2014-Nov-21 10:33N 40°39' W 074°07'0 0.0
2014-Nov-21 09:33N 40°39' W 074°07'0 0.0
2014-Nov-21 08:33N 40°39' W 074°07'0 0.0
2014-Nov-21 07:33N 40°39' W 074°07'0 0.0
2014-Nov-21 06:33N 40°39' W 074°07'1 0.6
2014-Nov-21 05:33N 40°39' W 074°08'8 6.6
2014-Nov-21 04:23N 40°33' W 074°15'5 6.2
2014-Nov-21 03:33N 40°38' W 074°12'4 3.9
2014-Nov-21 02:33N 40°39' W 074°07'0 0.0
2014-Nov-21 01:33N 40°39' W 074°07'0 0.0
2014-Nov-21 00:33N 40°39' W 074°07'0 0.0
2014-Nov-20 23:33N 40°39' W 074°07'0 0.1
2014-Nov-20 22:33N 40°39' W 074°07'7 6.8
2014-Nov-20 21:32N 40°33' W 074°14'1 0.6
2014-Nov-20 20:06N 40°34' W 074°13'5 2.0
2014-Nov-20 17:33N 40°39' W 074°10'6 6.0
2014-Nov-20 16:33N 40°39' W 074°02'4 4.5
2014-Nov-20 15:33N 40°39' W 074°08'5 5.1
2014-Nov-20 14:33N 40°35' W 074°13'1 0.2
2014-Nov-20 09:18N 40°35' W 074°12'4 5.3
2014-Nov-20 08:32N 40°39' W 074°09'6 5.9
2014-Nov-20 07:33N 40°39' W 074°02'9 8.3
2014-Nov-20 06:32N 40°47' W 073°56'24 7.9
2014-Nov-20 03:32N 40°59' W 073°29'8 8.2
2014-Nov-20 02:33N 41°01' W 073°19'9 8.4
2014-Nov-20 01:33N 41°02' W 073°08'17 8.4
2014-Nov-19 23:33N 41°05' W 072°46'9 8.9
2014-Nov-19 22:33N 41°07' W 072°35'1010.2
2014-Nov-19 21:33N 41°10' W 072°22'10 9.7
2014-Nov-19 20:33N 41°14' W 072°10'9 8.5
2014-Nov-19 19:33N 41°14' W 071°58'9 8.7
2014-Nov-19 18:33N 41°16' W 071°47'9 8.6
2014-Nov-19 17:33N 41°18' W 071°36'8 7.6
2014-Nov-19 16:34N 41°21' W 071°27'9 8.8
2014-Nov-19 15:33N 41°29' W 071°21'8 8.2
2014-Nov-19 14:32N 41°37' W 071°18'7 7.1
2014-Nov-19 13:33N 41°43' W 071°21'5 5.5
2014-Nov-19 12:33N 41°48' W 071°24'0 0.0
2014-Nov-19 11:33N 41°48' W 071°24'0 0.0
2014-Nov-19 10:33N 41°48' W 071°24'0 0.0
2014-Nov-19 09:33N 41°48' W 071°24'0 0.0
2014-Nov-19 08:33N 41°48' W 071°24'0 0.0
2014-Nov-19 07:33N 41°48' W 071°24'0 0.0
2014-Nov-19 06:33N 41°48' W 071°24'0 0.0
2014-Nov-19 05:33N 41°48' W 071°24'0 0.0
2014-Nov-19 04:33N 41°48' W 071°24'0 0.0
2014-Nov-19 03:33N 41°48' W 071°24'0 0.0
2014-Nov-19 02:33N 41°48' W 071°24'0 0.0
2014-Nov-19 01:33N 41°48' W 071°24'0 0.0
2014-Nov-19 00:33N 41°48' W 071°24'0 0.0
2014-Nov-18 23:33N 41°48' W 071°24'0 0.0
2014-Nov-18 22:33N 41°48' W 071°24'0 0.0
2014-Nov-18 21:33N 41°48' W 071°24'0 0.0
2014-Nov-18 20:33N 41°48' W 071°24'0 0.0
2014-Nov-18 19:33N 41°48' W 071°24'0 0.0
2014-Nov-18 18:33N 41°48' W 071°24'0 0.0
2014-Nov-18 17:33N 41°48' W 071°24'0 0.0
2014-Nov-18 16:33N 41°48' W 071°24'0 0.0
2014-Nov-18 15:33N 41°48' W 071°24'0 0.0
2014-Nov-18 14:18N 41°48' W 071°24'0 0.0
2014-Nov-18 13:33N 41°48' W 071°24'0 0.0
2014-Nov-18 12:33N 41°48' W 071°24'0 0.0
2014-Nov-18 11:33N 41°48' W 071°24'0 0.0
2014-Nov-18 10:33N 41°48' W 071°24'0 0.0
2014-Nov-18 09:33N 41°48' W 071°24'0 0.0
2014-Nov-18 08:33N 41°48' W 071°24'0 0.0
2014-Nov-18 07:33N 41°48' W 071°24'0 0.0
2014-Nov-18 06:33N 41°48' W 071°24'0 0.0
2014-Nov-18 05:33N 41°48' W 071°24'0 0.0
2014-Nov-18 04:33N 41°48' W 071°24'0 0.0
2014-Nov-18 03:33N 41°48' W 071°24'0 0.0
2014-Nov-18 02:33N 41°48' W 071°24'0 0.0
2014-Nov-18 01:33N 41°48' W 071°24'0 0.0
2014-Nov-18 00:33N 41°48' W 071°24'0 0.0
2014-Nov-17 23:33N 41°48' W 071°24'0 0.3
2014-Nov-17 22:33N 41°48' W 071°24'1 1.2
2014-Nov-17 21:33N 41°47' W 071°23'5 4.6
2014-Nov-17 20:33N 41°43' W 071°21'6 6.1
2014-Nov-17 19:33N 41°37' W 071°18'1 1.1
2014-Nov-17 18:33N 41°36' W 071°17'0 0.1
2014-Nov-17 17:19N 41°36' W 071°17'0 0.0
2014-Nov-17 16:22N 41°36' W 071°17'0 0.1
2014-Nov-17 15:33N 41°36' W 071°17'0 0.0
2014-Nov-17 14:33N 41°36' W 071°17'0 0.0
2014-Nov-17 13:33N 41°36' W 071°17'0 0.0
2014-Nov-17 12:32N 41°36' W 071°17'0 0.0
2014-Nov-17 11:33N 41°36' W 071°17'0 0.1
2014-Nov-17 10:33N 41°36' W 071°17'0 0.0
2014-Nov-17 09:33N 41°37' W 071°17'0 0.1
2014-Nov-17 08:33N 41°36' W 071°17'0 0.2
2014-Nov-17 07:33N 41°37' W 071°17'0 0.0
2014-Nov-17 06:33N 41°37' W 071°17'0 0.1
2014-Nov-17 05:33N 41°37' W 071°17'7 7.2
2014-Nov-17 04:33N 41°30' W 071°21'3 3.4
2014-Nov-17 03:33N 41°27' W 071°23'7 6.8
2014-Nov-17 02:33N 41°24' W 071°14'7 7.3
2014-Nov-17 01:33N 41°25' W 071°05'8 7.8
2014-Nov-17 00:32N 41°29' W 070°55'8 8.2
2014-Nov-16 23:33N 41°33' W 070°46'8 6.0
2014-Nov-16 22:10N 41°40' W 070°41'43 4.4
2014-Nov-16 12:23N 42°23' W 070°52'5 0.2
2014-Nov-15 06:29N 42°27' W 070°48'9 9.5
2014-Nov-15 05:33N 42°32' W 070°39'17 8.5
2014-Nov-15 03:33N 42°47' W 070°28'2 0.1
2014-Nov-13 14:15N 42°50' W 070°29'5 6.4
2014-Nov-13 13:32N 42°45' W 070°30'6 6.4
2014-Nov-13 12:33N 42°39' W 070°32'9 6.7
2014-Nov-13 11:15N 42°32' W 070°39'5 7.2
2014-Nov-13 10:33N 42°28' W 070°43'  
Track history (hours):
 
Tides and Currents Weather Stations Pressure Air Temp Water Temp Dewpoint Dewpoint Depression Visibility Wind Speed Wind Dir Waves Ship Positions

Morton S Bouchard Jr

Owner: BOUCHARD TRANSPORTATION CO INC, MELVILLE, NY. More information available from US FCC via Universal Licensing System and Coast Guard Vessel Documentation Center.

Last reported at 2014-Nov-23 09:33 UTC. Time now 2014-Nov-23 09:37 UTC.
Position N 41°06' W 072°30'.

Length 33 m; draft 6 m.

Type: Tug. MMSI: 367006550.

Date/timePositionNaut miles runAvg speedWind from/ knotsBaromVisibWave heightAir tempDewpointWater temp
2014-Nov-23 09:33N 41°06' W 072°30'3 2.6
2014-Nov-23 08:33N 41°07' W 072°27'2 1.6
2014-Nov-23 07:33N 41°09' W 072°25'4 4.5
2014-Nov-23 06:33N 41°06' W 072°30'5 5.3
2014-Nov-23 05:33N 41°04' W 072°37'5 4.8
2014-Nov-23 04:33N 41°03' W 072°43'4 4.3
2014-Nov-23 03:33N 41°02' W 072°48'4 4.0
2014-Nov-23 02:33N 41°02' W 072°54'4 3.6
2014-Nov-23 01:33N 41°02' W 072°59'2 1.5
2014-Nov-23 00:34N 41°02' W 073°00'6 5.6
2014-Nov-22 23:33N 41°02' W 072°53'5 5.3
2014-Nov-22 22:33N 41°02' W 072°46'5 4.7
2014-Nov-22 21:33N 41°03' W 072°40'4 4.0
2014-Nov-22 20:33N 41°05' W 072°35'3 3.1
2014-Nov-22 19:33N 41°06' W 072°31'3 2.9
2014-Nov-22 18:33N 41°08' W 072°28'3 2.8
2014-Nov-22 17:34N 41°09' W 072°25'3 3.1
2014-Nov-22 16:33N 41°10' W 072°21'4 4.3
2014-Nov-22 15:33N 41°09' W 072°27'5 4.8
2014-Nov-22 14:33N 41°08' W 072°33'5 5.4
2014-Nov-22 13:33N 41°07' W 072°40'5 5.2
2014-Nov-22 12:33N 41°06' W 072°47'5 5.3
2014-Nov-22 11:33N 41°05' W 072°53'5 5.3
2014-Nov-22 10:33N 41°03' W 073°00'5 5.1
2014-Nov-22 09:33N 41°02' W 073°07'5 5.2
2014-Nov-22 08:33N 41°01' W 073°14'6 5.5
2014-Nov-22 07:33N 41°01' W 073°21'6 5.7
2014-Nov-22 06:33N 40°59' W 073°28'7 6.1
2014-Nov-22 05:27N 40°56' W 073°36'14 4.8
2014-Nov-22 02:30N 40°48' W 073°52'5 5.7
2014-Nov-22 01:33N 40°45' W 073°58'6 5.9
2014-Nov-22 00:33N 40°40' W 074°02'0 0.5
2014-Nov-21 23:33N 40°40' W 074°02'0 0.0
2014-Nov-21 22:33N 40°40' W 074°02'1 1.0
2014-Nov-21 21:33N 40°39' W 074°03'6 5.8
2014-Nov-21 20:33N 40°39' W 074°11'4 3.8
2014-Nov-21 19:33N 40°35' W 074°12'3 1.5
2014-Nov-21 17:30N 40°33' W 074°15'0 0.0
2014-Nov-21 16:05N 40°33' W 074°15'0 0.0
2014-Nov-21 15:04N 40°33' W 074°15'5 2.0
2014-Nov-21 12:33N 40°37' W 074°12'5 4.6
2014-Nov-21 11:33N 40°39' W 074°07'1 0.6
2014-Nov-21 10:33N 40°39' W 074°07'0 0.0
2014-Nov-21 09:33N 40°39' W 074°07'0 0.0
2014-Nov-21 08:33N 40°39' W 074°07'0 0.0
2014-Nov-21 07:33N 40°39' W 074°07'0 0.0
2014-Nov-21 06:33N 40°39' W 074°07'1 0.6
2014-Nov-21 05:33N 40°39' W 074°08'8 6.6
2014-Nov-21 04:23N 40°33' W 074°15'5 6.2
2014-Nov-21 03:33N 40°38' W 074°12'4 3.9
2014-Nov-21 02:33N 40°39' W 074°07'0 0.0
2014-Nov-21 01:33N 40°39' W 074°07'0 0.0
2014-Nov-21 00:33N 40°39' W 074°07'0 0.0
2014-Nov-20 23:33N 40°39' W 074°07'0 0.1
2014-Nov-20 22:33N 40°39' W 074°07'7 6.8
2014-Nov-20 21:32N 40°33' W 074°14'1 0.6
2014-Nov-20 20:06N 40°34' W 074°13'5 2.0
2014-Nov-20 17:33N 40°39' W 074°10'6 6.0
2014-Nov-20 16:33N 40°39' W 074°02'4 4.5
2014-Nov-20 15:33N 40°39' W 074°08'5 5.1
2014-Nov-20 14:33N 40°35' W 074°13'1 0.2
2014-Nov-20 09:18N 40°35' W 074°12'4 5.3
2014-Nov-20 08:32N 40°39' W 074°09'6 5.9
2014-Nov-20 07:33N 40°39' W 074°02'9 8.3
2014-Nov-20 06:32N 40°47' W 073°56'24 7.9
2014-Nov-20 03:32N 40°59' W 073°29'8 8.2
2014-Nov-20 02:33N 41°01' W 073°19'9 8.4
2014-Nov-20 01:33N 41°02' W 073°08'17 8.4
2014-Nov-19 23:33N 41°05' W 072°46'9 8.9
2014-Nov-19 22:33N 41°07' W 072°35'1010.2
2014-Nov-19 21:33N 41°10' W 072°22'10 9.7
2014-Nov-19 20:33N 41°14' W 072°10'9 8.5
2014-Nov-19 19:33N 41°14' W 071°58'9 8.7
2014-Nov-19 18:33N 41°16' W 071°47'9 8.6
2014-Nov-19 17:33N 41°18' W 071°36'8 7.6
2014-Nov-19 16:34N 41°21' W 071°27'9 8.8
2014-Nov-19 15:33N 41°29' W 071°21'8 8.2
2014-Nov-19 14:32N 41°37' W 071°18'7 7.1
2014-Nov-19 13:33N 41°43' W 071°21'5 5.5
2014-Nov-19 12:33N 41°48' W 071°24'0 0.0
2014-Nov-19 11:33N 41°48' W 071°24'0 0.0
2014-Nov-19 10:33N 41°48' W 071°24'0 0.0
2014-Nov-19 09:33N 41°48' W 071°24'0 0.0
2014-Nov-19 08:33N 41°48' W 071°24'0 0.0
2014-Nov-19 07:33N 41°48' W 071°24'0 0.0
2014-Nov-19 06:33N 41°48' W 071°24'0 0.0
2014-Nov-19 05:33N 41°48' W 071°24'0 0.0
2014-Nov-19 04:33N 41°48' W 071°24'0 0.0
2014-Nov-19 03:33N 41°48' W 071°24'0 0.0
2014-Nov-19 02:33N 41°48' W 071°24'0 0.0
2014-Nov-19 01:33N 41°48' W 071°24'0 0.0
2014-Nov-19 00:33N 41°48' W 071°24'0 0.0
2014-Nov-18 23:33N 41°48' W 071°24'0 0.0
2014-Nov-18 22:33N 41°48' W 071°24'0 0.0
2014-Nov-18 21:33N 41°48' W 071°24'0 0.0
2014-Nov-18 20:33N 41°48' W 071°24'0 0.0
2014-Nov-18 19:33N 41°48' W 071°24'0 0.0
2014-Nov-18 18:33N 41°48' W 071°24'0 0.0
2014-Nov-18 17:33N 41°48' W 071°24'0 0.0
2014-Nov-18 16:33N 41°48' W 071°24'0 0.0
2014-Nov-18 15:33N 41°48' W 071°24'0 0.0
2014-Nov-18 14:18N 41°48' W 071°24'0 0.0
2014-Nov-18 13:33N 41°48' W 071°24'0 0.0
2014-Nov-18 12:33N 41°48' W 071°24'0 0.0
2014-Nov-18 11:33N 41°48' W 071°24'0 0.0
2014-Nov-18 10:33N 41°48' W 071°24'0 0.0
2014-Nov-18 09:33N 41°48' W 071°24'0 0.0
2014-Nov-18 08:33N 41°48' W 071°24'0 0.0
2014-Nov-18 07:33N 41°48' W 071°24'0 0.0
2014-Nov-18 06:33N 41°48' W 071°24'0 0.0
2014-Nov-18 05:33N 41°48' W 071°24'0 0.0
2014-Nov-18 04:33N 41°48' W 071°24'0 0.0
2014-Nov-18 03:33N 41°48' W 071°24'0 0.0
2014-Nov-18 02:33N 41°48' W 071°24'0 0.0
2014-Nov-18 01:33N 41°48' W 071°24'0 0.0
2014-Nov-18 00:33N 41°48' W 071°24'0 0.0
2014-Nov-17 23:33N 41°48' W 071°24'0 0.3
2014-Nov-17 22:33N 41°48' W 071°24'1 1.2
2014-Nov-17 21:33N 41°47' W 071°23'5 4.6
2014-Nov-17 20:33N 41°43' W 071°21'6 6.1
2014-Nov-17 19:33N 41°37' W 071°18'1 1.1
2014-Nov-17 18:33N 41°36' W 071°17'0 0.1
2014-Nov-17 17:19N 41°36' W 071°17'0 0.0
2014-Nov-17 16:22N 41°36' W 071°17'0 0.1
2014-Nov-17 15:33N 41°36' W 071°17'0 0.0
2014-Nov-17 14:33N 41°36' W 071°17'0 0.0
2014-Nov-17 13:33N 41°36' W 071°17'0 0.0
2014-Nov-17 12:32N 41°36' W 071°17'0 0.0
2014-Nov-17 11:33N 41°36' W 071°17'0 0.1
2014-Nov-17 10:33N 41°36' W 071°17'0 0.0
2014-Nov-17 09:33N 41°37' W 071°17'0 0.1
2014-Nov-17 08:33N 41°36' W 071°17'0 0.2
2014-Nov-17 07:33N 41°37' W 071°17'0 0.0
2014-Nov-17 06:33N 41°37' W 071°17'0 0.1
2014-Nov-17 05:33N 41°37' W 071°17'7 7.2
2014-Nov-17 04:33N 41°30' W 071°21'3 3.4
2014-Nov-17 03:33N 41°27' W 071°23'7 6.8
2014-Nov-17 02:33N 41°24' W 071°14'7 7.3
2014-Nov-17 01:33N 41°25' W 071°05'8 7.8
2014-Nov-17 00:32N 41°29' W 070°55'8 8.2
2014-Nov-16 23:33N 41°33' W 070°46'8 6.0
2014-Nov-16 22:10N 41°40' W 070°41'43 4.4
2014-Nov-16 12:23N 42°23' W 070°52'5 0.2
2014-Nov-15 06:29N 42°27' W 070°48'9 9.5
2014-Nov-15 05:33N 42°32' W 070°39'17 8.5
2014-Nov-15 03:33N 42°47' W 070°28'2 0.1
2014-Nov-13 14:15N 42°50' W 070°29'5 6.4
2014-Nov-13 13:32N 42°45' W 070°30'6 6.4
2014-Nov-13 12:33N 42°39' W 070°32'9 6.7
2014-Nov-13 11:15N 42°32' W 070°39'5 7.2
2014-Nov-13 10:33N 42°28' W 070°43'  

Dump ship's entire track history